sensor_id;sensor_type;location;lat;lon;timestamp;temperature;humidity
52030;DHT22;38043;53.224;6.580;2023-04-29T00:02:07;9.00;99.90
52030;DHT22;38043;53.224;6.580;2023-04-29T00:04:32;8.80;99.90
52030;DHT22;38043;53.224;6.580;2023-04-29T00:06:59;8.80;99.90
52030;DHT22;38043;53.224;6.580;2023-04-29T00:09:24;8.80;99.90
52030;DHT22;38043;53.224;6.580;2023-04-29T00:11:50;8.80;99.90
52030;DHT22;38043;53.224;6.580;2023-04-29T00:14:16;8.80;99.90
52030;DHT22;38043;53.224;6.580;2023-04-29T00:16:41;8.80;99.90
52030;DHT22;38043;53.224;6.580;2023-04-29T00:19:07;8.80;99.90
52030;DHT22;38043;53.224;6.580;2023-04-29T00:21:32;8.80;99.90
52030;DHT22;38043;53.224;6.580;2023-04-29T00:23:58;8.80;99.90
52030;DHT22;38043;53.224;6.580;2023-04-29T00:26:24;8.70;99.90
52030;DHT22;38043;53.224;6.580;2023-04-29T00:28:50;8.70;99.90
52030;DHT22;38043;53.224;6.580;2023-04-29T00:31:15;8.70;99.90
52030;DHT22;38043;53.224;6.580;2023-04-29T00:33:41;8.70;99.90
52030;DHT22;38043;53.224;6.580;2023-04-29T00:36:06;8.70;99.90
52030;DHT22;38043;53.224;6.580;2023-04-29T00:38:32;8.70;99.90
52030;DHT22;38043;53.224;6.580;2023-04-29T00:40:58;8.60;99.90
52030;DHT22;38043;53.224;6.580;2023-04-29T00:43:24;8.70;99.90
52030;DHT22;38043;53.224;6.580;2023-04-29T00:45:49;8.70;99.90
52030;DHT22;38043;53.224;6.580;2023-04-29T00:48:15;8.60;99.90
52030;DHT22;38043;53.224;6.580;2023-04-29T00:50:41;8.60;99.90
52030;DHT22;38043;53.224;6.580;2023-04-29T00:53:07;8.70;99.90
52030;DHT22;38043;53.224;6.580;2023-04-29T00:55:32;8.60;99.90
52030;DHT22;38043;53.224;6.580;2023-04-29T00:57:58;8.60;99.90
52030;DHT22;38043;53.224;6.580;2023-04-29T01:00:23;8.60;99.90
52030;DHT22;38043;53.224;6.580;2023-04-29T01:02:51;8.60;99.90
52030;DHT22;38043;53.224;6.580;2023-04-29T01:05:16;8.60;99.90
52030;DHT22;38043;53.224;6.580;2023-04-29T01:07:55;8.60;99.90
52030;DHT22;38043;53.224;6.580;2023-04-29T01:10:25;8.50;99.90
52030;DHT22;38043;53.224;6.580;2023-04-29T01:15:29;8.60;99.90
52030;DHT22;38043;53.224;6.580;2023-04-29T01:18:03;8.50;99.90
52030;DHT22;38043;53.224;6.580;2023-04-29T01:20:29;8.60;99.90
52030;DHT22;38043;53.224;6.580;2023-04-29T01:22:55;8.50;99.90
52030;DHT22;38043;53.224;6.580;2023-04-29T01:25:20;8.50;99.90
52030;DHT22;38043;53.224;6.580;2023-04-29T01:30:30;8.50;99.90
52030;DHT22;38043;53.224;6.580;2023-04-29T01:38:15;8.50;99.90
52030;DHT22;38043;53.224;6.580;2023-04-29T01:40:46;8.40;99.90
52030;DHT22;38043;53.224;6.580;2023-04-29T01:43:13;8.60;99.90
52030;DHT22;38043;53.224;6.580;2023-04-29T01:45:40;8.40;99.90
52030;DHT22;38043;53.224;6.580;2023-04-29T01:48:06;8.40;99.90
52030;DHT22;38043;53.224;6.580;2023-04-29T01:50:32;8.30;99.90
52030;DHT22;38043;53.224;6.580;2023-04-29T01:52:57;8.20;99.90
52030;DHT22;38043;53.224;6.580;2023-04-29T01:55:23;8.30;99.90
52030;DHT22;38043;53.224;6.580;2023-04-29T01:57:48;8.20;99.90
52030;DHT22;38043;53.224;6.580;2023-04-29T02:00:14;8.20;99.90
52030;DHT22;38043;53.224;6.580;2023-04-29T02:02:39;8.10;99.90
52030;DHT22;38043;53.224;6.580;2023-04-29T02:05:05;8.20;99.90
52030;DHT22;38043;53.224;6.580;2023-04-29T02:07:30;8.10;99.90
52030;DHT22;38043;53.224;6.580;2023-04-29T02:09:56;8.00;99.90
52030;DHT22;38043;53.224;6.580;2023-04-29T02:12:21;8.00;99.90
52030;DHT22;38043;53.224;6.580;2023-04-29T02:14:50;8.10;99.90
52030;DHT22;38043;53.224;6.580;2023-04-29T02:17:16;8.00;99.90
52030;DHT22;38043;53.224;6.580;2023-04-29T02:19:42;7.90;99.90
52030;DHT22;38043;53.224;6.580;2023-04-29T02:22:07;7.90;99.90
52030;DHT22;38043;53.224;6.580;2023-04-29T02:24:33;7.90;99.90
52030;DHT22;38043;53.224;6.580;2023-04-29T02:26:59;7.80;99.90
52030;DHT22;38043;53.224;6.580;2023-04-29T02:29:25;7.80;99.90
52030;DHT22;38043;53.224;6.580;2023-04-29T02:31:51;7.80;99.90
52030;DHT22;38043;53.224;6.580;2023-04-29T02:34:16;7.80;99.90
52030;DHT22;38043;53.224;6.580;2023-04-29T02:36:42;7.80;99.90
52030;DHT22;38043;53.224;6.580;2023-04-29T02:39:08;7.80;99.90
52030;DHT22;38043;53.224;6.580;2023-04-29T02:41:33;7.80;99.90
52030;DHT22;38043;53.224;6.580;2023-04-29T02:43:59;7.70;99.90
52030;DHT22;38043;53.224;6.580;2023-04-29T02:46:24;7.70;99.90
52030;DHT22;38043;53.224;6.580;2023-04-29T02:48:50;7.80;99.90
52030;DHT22;38043;53.224;6.580;2023-04-29T02:51:15;7.80;99.90
52030;DHT22;38043;53.224;6.580;2023-04-29T02:53:41;7.80;99.90
52030;DHT22;38043;53.224;6.580;2023-04-29T02:56:06;7.80;99.90
52030;DHT22;38043;53.224;6.580;2023-04-29T02:58:32;7.90;99.90
52030;DHT22;38043;53.224;6.580;2023-04-29T03:00:57;7.90;99.90
52030;DHT22;38043;53.224;6.580;2023-04-29T03:03:23;7.90;99.90
52030;DHT22;38043;53.224;6.580;2023-04-29T03:05:48;7.90;99.90
52030;DHT22;38043;53.224;6.580;2023-04-29T03:08:14;8.00;99.90
52030;DHT22;38043;53.224;6.580;2023-04-29T03:10:40;8.00;99.90
52030;DHT22;38043;53.224;6.580;2023-04-29T03:13:06;8.00;99.90
52030;DHT22;38043;53.224;6.580;2023-04-29T03:15:31;8.10;99.90
52030;DHT22;38043;53.224;6.580;2023-04-29T03:17:57;8.10;99.90
52030;DHT22;38043;53.224;6.580;2023-04-29T03:20:26;8.10;99.90
52030;DHT22;38043;53.224;6.580;2023-04-29T03:22:54;8.20;99.90
52030;DHT22;38043;53.224;6.580;2023-04-29T03:25:20;8.10;99.90
52030;DHT22;38043;53.224;6.580;2023-04-29T03:27:45;8.10;99.90
52030;DHT22;38043;53.224;6.580;2023-04-29T03:30:11;8.20;99.90
52030;DHT22;38043;53.224;6.580;2023-04-29T03:32:37;8.10;99.90
52030;DHT22;38043;53.224;6.580;2023-04-29T03:35:02;8.20;99.90
52030;DHT22;38043;53.224;6.580;2023-04-29T03:37:28;8.20;99.90
52030;DHT22;38043;53.224;6.580;2023-04-29T03:39:54;8.20;99.90
52030;DHT22;38043;53.224;6.580;2023-04-29T03:42:20;8.20;99.90
52030;DHT22;38043;53.224;6.580;2023-04-29T03:44:45;8.20;99.90
52030;DHT22;38043;53.224;6.580;2023-04-29T03:47:11;8.50;99.90
52030;DHT22;38043;53.224;6.580;2023-04-29T03:49:38;8.30;99.90
52030;DHT22;38043;53.224;6.580;2023-04-29T03:52:03;8.30;99.90
52030;DHT22;38043;53.224;6.580;2023-04-29T03:54:29;8.30;99.90
52030;DHT22;38043;53.224;6.580;2023-04-29T03:56:55;8.30;99.90
52030;DHT22;38043;53.224;6.580;2023-04-29T03:59:20;8.30;99.90
52030;DHT22;38043;53.224;6.580;2023-04-29T04:01:46;8.30;99.90
52030;DHT22;38043;53.224;6.580;2023-04-29T04:04:11;8.40;99.90
52030;DHT22;38043;53.224;6.580;2023-04-29T04:06:37;8.20;99.90
52030;DHT22;38043;53.224;6.580;2023-04-29T04:09:03;8.30;99.90
52030;DHT22;38043;53.224;6.580;2023-04-29T04:11:29;8.40;99.90
52030;DHT22;38043;53.224;6.580;2023-04-29T04:13:54;8.40;99.90
52030;DHT22;38043;53.224;6.580;2023-04-29T04:16:20;8.30;99.90
52030;DHT22;38043;53.224;6.580;2023-04-29T04:18:45;8.30;99.90
52030;DHT22;38043;53.224;6.580;2023-04-29T04:21:11;8.30;99.90
52030;DHT22;38043;53.224;6.580;2023-04-29T04:23:37;8.30;99.90
52030;DHT22;38043;53.224;6.580;2023-04-29T04:26:05;8.30;99.90
52030;DHT22;38043;53.224;6.580;2023-04-29T04:28:31;8.40;99.90
52030;DHT22;38043;53.224;6.580;2023-04-29T04:30:56;8.30;99.90
52030;DHT22;38043;53.224;6.580;2023-04-29T04:33:23;8.40;99.90
52030;DHT22;38043;53.224;6.580;2023-04-29T04:35:48;8.30;99.90
52030;DHT22;38043;53.224;6.580;2023-04-29T04:38:14;8.30;99.90
52030;DHT22;38043;53.224;6.580;2023-04-29T04:40:40;8.30;99.90
52030;DHT22;38043;53.224;6.580;2023-04-29T04:43:05;8.40;99.90
52030;DHT22;38043;53.224;6.580;2023-04-29T04:45:31;8.40;99.90
52030;DHT22;38043;53.224;6.580;2023-04-29T04:47:56;8.30;99.90
52030;DHT22;38043;53.224;6.580;2023-04-29T04:50:22;8.30;99.90
52030;DHT22;38043;53.224;6.580;2023-04-29T04:52:47;8.40;99.90
52030;DHT22;38043;53.224;6.580;2023-04-29T04:55:13;8.40;99.90
52030;DHT22;38043;53.224;6.580;2023-04-29T04:57:38;8.40;99.90
52030;DHT22;38043;53.224;6.580;2023-04-29T05:00:04;8.40;99.90
52030;DHT22;38043;53.224;6.580;2023-04-29T05:02:30;8.40;99.90
52030;DHT22;38043;53.224;6.580;2023-04-29T05:04:55;8.50;99.90
52030;DHT22;38043;53.224;6.580;2023-04-29T05:07:21;8.40;99.90
52030;DHT22;38043;53.224;6.580;2023-04-29T05:09:46;8.40;99.90
52030;DHT22;38043;53.224;6.580;2023-04-29T05:12:12;8.40;99.90
52030;DHT22;38043;53.224;6.580;2023-04-29T05:14:37;8.40;99.90
52030;DHT22;38043;53.224;6.580;2023-04-29T05:17:03;8.40;99.90
52030;DHT22;38043;53.224;6.580;2023-04-29T05:19:28;8.50;99.90
52030;DHT22;38043;53.224;6.580;2023-04-29T05:21:54;8.40;99.90
52030;DHT22;38043;53.224;6.580;2023-04-29T05:24:19;8.50;99.90
52030;DHT22;38043;53.224;6.580;2023-04-29T05:26:45;8.50;99.90
52030;DHT22;38043;53.224;6.580;2023-04-29T05:29:11;8.50;99.90
52030;DHT22;38043;53.224;6.580;2023-04-29T05:31:36;8.50;99.90
52030;DHT22;38043;53.224;6.580;2023-04-29T05:34:03;8.60;99.90
52030;DHT22;38043;53.224;6.580;2023-04-29T05:36:28;8.60;99.90
52030;DHT22;38043;53.224;6.580;2023-04-29T05:38:54;8.70;99.90
52030;DHT22;38043;53.224;6.580;2023-04-29T05:41:20;8.60;99.90
52030;DHT22;38043;53.224;6.580;2023-04-29T05:43:46;8.70;99.90
52030;DHT22;38043;53.224;6.580;2023-04-29T05:46:11;8.70;99.90
52030;DHT22;38043;53.224;6.580;2023-04-29T05:48:37;8.70;99.90
52030;DHT22;38043;53.224;6.580;2023-04-29T05:51:03;8.80;99.90
52030;DHT22;38043;53.224;6.580;2023-04-29T05:53:28;8.80;99.90
52030;DHT22;38043;53.224;6.580;2023-04-29T05:55:54;8.90;99.90
52030;DHT22;38043;53.224;6.580;2023-04-29T05:58:19;8.90;99.90
52030;DHT22;38043;53.224;6.580;2023-04-29T06:00:45;8.80;99.90
52030;DHT22;38043;53.224;6.580;2023-04-29T06:03:10;9.00;99.90
52030;DHT22;38043;53.224;6.580;2023-04-29T06:05:36;9.00;99.90
52030;DHT22;38043;53.224;6.580;2023-04-29T06:08:02;9.00;99.90
52030;DHT22;38043;53.224;6.580;2023-04-29T06:10:28;9.10;99.90
52030;DHT22;38043;53.224;6.580;2023-04-29T06:12:54;9.10;99.90
52030;DHT22;38043;53.224;6.580;2023-04-29T06:15:19;9.10;99.90
52030;DHT22;38043;53.224;6.580;2023-04-29T06:17:45;9.10;99.90
52030;DHT22;38043;53.224;6.580;2023-04-29T06:20:11;9.20;99.90
52030;DHT22;38043;53.224;6.580;2023-04-29T06:22:37;9.30;99.90
52030;DHT22;38043;53.224;6.580;2023-04-29T06:25:02;9.60;99.90
52030;DHT22;38043;53.224;6.580;2023-04-29T06:27:28;10.00;99.90
52030;DHT22;38043;53.224;6.580;2023-04-29T06:29:53;10.50;99.90
52030;DHT22;38043;53.224;6.580;2023-04-29T06:32:20;10.90;99.90
52030;DHT22;38043;53.224;6.580;2023-04-29T06:34:45;11.20;99.90
52030;DHT22;38043;53.224;6.580;2023-04-29T06:37:11;11.60;99.90
52030;DHT22;38043;53.224;6.580;2023-04-29T06:39:36;11.80;99.90
52030;DHT22;38043;53.224;6.580;2023-04-29T06:42:02;12.10;99.90
52030;DHT22;38043;53.224;6.580;2023-04-29T06:44:27;12.00;99.90
52030;DHT22;38043;53.224;6.580;2023-04-29T06:46:53;11.80;99.90
52030;DHT22;38043;53.224;6.580;2023-04-29T06:49:18;11.70;99.90
52030;DHT22;38043;53.224;6.580;2023-04-29T06:51:44;11.50;99.90
52030;DHT22;38043;53.224;6.580;2023-04-29T06:54:10;11.50;99.90
52030;DHT22;38043;53.224;6.580;2023-04-29T06:56:35;11.40;99.90
52030;DHT22;38043;53.224;6.580;2023-04-29T06:59:01;11.40;99.90
52030;DHT22;38043;53.224;6.580;2023-04-29T07:01:26;11.40;99.90
52030;DHT22;38043;53.224;6.580;2023-04-29T07:03:52;11.40;99.90
52030;DHT22;38043;53.224;6.580;2023-04-29T07:06:17;11.30;99.90
52030;DHT22;38043;53.224;6.580;2023-04-29T07:08:43;11.30;99.90
52030;DHT22;38043;53.224;6.580;2023-04-29T07:11:08;11.40;99.90
52030;DHT22;38043;53.224;6.580;2023-04-29T07:13:34;11.40;99.90
52030;DHT22;38043;53.224;6.580;2023-04-29T07:15:59;11.40;99.90
52030;DHT22;38043;53.224;6.580;2023-04-29T07:18:25;11.30;99.90
52030;DHT22;38043;53.224;6.580;2023-04-29T07:20:51;11.40;99.90
52030;DHT22;38043;53.224;6.580;2023-04-29T07:23:17;11.50;99.90
52030;DHT22;38043;53.224;6.580;2023-04-29T07:25:42;11.50;99.90
52030;DHT22;38043;53.224;6.580;2023-04-29T07:28:08;11.60;99.90
52030;DHT22;38043;53.224;6.580;2023-04-29T07:30:33;11.70;99.90
52030;DHT22;38043;53.224;6.580;2023-04-29T07:32:59;11.70;99.90
52030;DHT22;38043;53.224;6.580;2023-04-29T07:35:25;11.90;99.90
52030;DHT22;38043;53.224;6.580;2023-04-29T07:37:51;11.70;99.90
52030;DHT22;38043;53.224;6.580;2023-04-29T07:40:17;11.70;99.90
52030;DHT22;38043;53.224;6.580;2023-04-29T07:42:42;11.80;99.90
52030;DHT22;38043;53.224;6.580;2023-04-29T07:45:08;11.80;99.90
52030;DHT22;38043;53.224;6.580;2023-04-29T07:47:34;11.90;99.90
52030;DHT22;38043;53.224;6.580;2023-04-29T07:49:59;11.90;99.90
52030;DHT22;38043;53.224;6.580;2023-04-29T07:52:25;11.90;99.90
52030;DHT22;38043;53.224;6.580;2023-04-29T07:54:51;12.00;99.90
52030;DHT22;38043;53.224;6.580;2023-04-29T07:57:16;12.10;99.90
52030;DHT22;38043;53.224;6.580;2023-04-29T07:59:42;12.20;99.90
52030;DHT22;38043;53.224;6.580;2023-04-29T08:02:07;12.20;99.90
52030;DHT22;38043;53.224;6.580;2023-04-29T08:04:33;12.20;99.90
52030;DHT22;38043;53.224;6.580;2023-04-29T08:06:58;12.30;99.90
52030;DHT22;38043;53.224;6.580;2023-04-29T08:09:24;12.40;99.90
52030;DHT22;38043;53.224;6.580;2023-04-29T08:11:49;12.40;99.90
52030;DHT22;38043;53.224;6.580;2023-04-29T08:14:15;12.40;99.90
52030;DHT22;38043;53.224;6.580;2023-04-29T08:16:41;12.50;99.90
52030;DHT22;38043;53.224;6.580;2023-04-29T08:19:06;12.40;99.90
52030;DHT22;38043;53.224;6.580;2023-04-29T08:21:32;12.50;99.90
52030;DHT22;38043;53.224;6.580;2023-04-29T08:23:57;12.50;99.90
52030;DHT22;38043;53.224;6.580;2023-04-29T08:26:23;12.50;99.90
52030;DHT22;38043;53.224;6.580;2023-04-29T08:28:48;12.60;99.90
52030;DHT22;38043;53.224;6.580;2023-04-29T08:31:17;12.70;99.90
52030;DHT22;38043;53.224;6.580;2023-04-29T08:33:43;12.70;99.90
52030;DHT22;38043;53.224;6.580;2023-04-29T08:36:08;12.80;99.90
52030;DHT22;38043;53.224;6.580;2023-04-29T08:38:34;12.70;99.90
52030;DHT22;38043;53.224;6.580;2023-04-29T08:41:00;12.80;99.90
52030;DHT22;38043;53.224;6.580;2023-04-29T08:43:25;12.80;99.90
52030;DHT22;38043;53.224;6.580;2023-04-29T08:45:51;12.80;99.90
52030;DHT22;38043;53.224;6.580;2023-04-29T08:48:17;12.80;99.90
52030;DHT22;38043;53.224;6.580;2023-04-29T08:50:43;12.90;99.90
52030;DHT22;38043;53.224;6.580;2023-04-29T08:53:10;13.00;99.90
52030;DHT22;38043;53.224;6.580;2023-04-29T08:55:40;13.10;99.90
52030;DHT22;38043;53.224;6.580;2023-04-29T08:58:06;13.00;99.90
52030;DHT22;38043;53.224;6.580;2023-04-29T09:00:33;13.00;99.90
52030;DHT22;38043;53.224;6.580;2023-04-29T09:02:59;12.90;99.90
52030;DHT22;38043;53.224;6.580;2023-04-29T09:05:25;13.00;99.90
52030;DHT22;38043;53.224;6.580;2023-04-29T09:07:51;13.20;99.90
52030;DHT22;38043;53.224;6.580;2023-04-29T09:10:17;13.10;99.90
52030;DHT22;38043;53.224;6.580;2023-04-29T09:12:43;13.20;99.90
52030;DHT22;38043;53.224;6.580;2023-04-29T09:15:09;13.30;99.90
52030;DHT22;38043;53.224;6.580;2023-04-29T09:17:38;13.40;99.90
52030;DHT22;38043;53.224;6.580;2023-04-29T09:22:51;13.40;99.90
52030;DHT22;38043;53.224;6.580;2023-04-29T09:25:17;13.40;99.90
52030;DHT22;38043;53.224;6.580;2023-04-29T09:27:42;13.40;99.90
52030;DHT22;38043;53.224;6.580;2023-04-29T09:30:08;13.50;99.90
52030;DHT22;38043;53.224;6.580;2023-04-29T09:32:35;13.60;99.90
52030;DHT22;38043;53.224;6.580;2023-04-29T09:37:45;13.60;99.90
52030;DHT22;38043;53.224;6.580;2023-04-29T09:42:55;13.70;99.90
52030;DHT22;38043;53.224;6.580;2023-04-29T09:45:36;13.70;99.90
52030;DHT22;38043;53.224;6.580;2023-04-29T09:48:02;13.90;99.90
52030;DHT22;38043;53.224;6.580;2023-04-29T09:50:29;14.00;99.90
52030;DHT22;38043;53.224;6.580;2023-04-29T09:52:55;13.90;99.90
52030;DHT22;38043;53.224;6.580;2023-04-29T09:55:20;13.80;99.90
52030;DHT22;38043;53.224;6.580;2023-04-29T09:57:46;13.80;99.90
52030;DHT22;38043;53.224;6.580;2023-04-29T10:00:12;14.00;99.90
52030;DHT22;38043;53.224;6.580;2023-04-29T10:02:40;14.10;99.90
52030;DHT22;38043;53.224;6.580;2023-04-29T10:05:09;14.00;99.90
52030;DHT22;38043;53.224;6.580;2023-04-29T10:07:35;14.10;99.90
52030;DHT22;38043;53.224;6.580;2023-04-29T10:10:03;14.20;99.90
52030;DHT22;38043;53.224;6.580;2023-04-29T10:12:30;14.30;99.90
52030;DHT22;38043;53.224;6.580;2023-04-29T10:17:43;14.30;99.90
52030;DHT22;38043;53.224;6.580;2023-04-29T10:20:11;14.30;99.90
52030;DHT22;38043;53.224;6.580;2023-04-29T10:25:06;14.70;99.90
52030;DHT22;38043;53.224;6.580;2023-04-29T10:27:34;14.70;99.90
52030;DHT22;38043;53.224;6.580;2023-04-29T10:30:02;14.90;99.90
52030;DHT22;38043;53.224;6.580;2023-04-29T10:32:29;15.20;99.90
52030;DHT22;38043;53.224;6.580;2023-04-29T10:34:55;15.40;98.70
52030;DHT22;38043;53.224;6.580;2023-04-29T10:37:23;15.40;98.10
52030;DHT22;38043;53.224;6.580;2023-04-29T10:50:27;16.00;91.50
52030;DHT22;38043;53.224;6.580;2023-04-29T10:52:56;16.10;90.90
52030;DHT22;38043;53.224;6.580;2023-04-29T10:55:22;16.10;90.20
52030;DHT22;38043;53.224;6.580;2023-04-29T10:57:48;16.20;90.50
52030;DHT22;38043;53.224;6.580;2023-04-29T11:00:26;16.30;92.00
52030;DHT22;38043;53.224;6.580;2023-04-29T11:02:52;16.50;90.70
52030;DHT22;38043;53.224;6.580;2023-04-29T11:05:28;16.70;84.90
52030;DHT22;38043;53.224;6.580;2023-04-29T11:08:13;16.70;87.40
52030;DHT22;38043;53.224;6.580;2023-04-29T11:10:41;16.70;84.00
52030;DHT22;38043;53.224;6.580;2023-04-29T11:15:51;16.70;87.40
52030;DHT22;38043;53.224;6.580;2023-04-29T11:18:17;17.10;86.90
52030;DHT22;38043;53.224;6.580;2023-04-29T11:23:37;17.20;80.00
52030;DHT22;38043;53.224;6.580;2023-04-29T11:26:03;17.10;83.00
52030;DHT22;38043;53.224;6.580;2023-04-29T11:28:29;17.10;83.00
52030;DHT22;38043;53.224;6.580;2023-04-29T11:30:55;17.40;82.80
52030;DHT22;38043;53.224;6.580;2023-04-29T11:33:21;17.40;84.40
52030;DHT22;38043;53.224;6.580;2023-04-29T11:35:46;17.60;85.10
52030;DHT22;38043;53.224;6.580;2023-04-29T11:38:12;17.70;87.70
52030;DHT22;38043;53.224;6.580;2023-04-29T11:40:56;17.80;85.60
52030;DHT22;38043;53.224;6.580;2023-04-29T11:43:22;17.80;84.70
52030;DHT22;38043;53.224;6.580;2023-04-29T11:45:49;17.70;82.00
52030;DHT22;38043;53.224;6.580;2023-04-29T11:48:19;17.60;86.20
52030;DHT22;38043;53.224;6.580;2023-04-29T11:50:48;17.90;86.30
52030;DHT22;38043;53.224;6.580;2023-04-29T11:53:14;18.20;87.70
52030;DHT22;38043;53.224;6.580;2023-04-29T11:55:42;18.40;86.10
52030;DHT22;38043;53.224;6.580;2023-04-29T11:58:08;18.70;81.30
52030;DHT22;38043;53.224;6.580;2023-04-29T12:00:34;18.40;83.30
52030;DHT22;38043;53.224;6.580;2023-04-29T12:03:00;18.00;85.50
52030;DHT22;38043;53.224;6.580;2023-04-29T12:05:26;18.00;82.60
52030;DHT22;38043;53.224;6.580;2023-04-29T12:07:53;17.90;83.10
52030;DHT22;38043;53.224;6.580;2023-04-29T12:10:19;18.00;83.90
52030;DHT22;38043;53.224;6.580;2023-04-29T12:12:45;18.00;83.70
52030;DHT22;38043;53.224;6.580;2023-04-29T12:15:11;18.10;83.70
52030;DHT22;38043;53.224;6.580;2023-04-29T12:17:37;18.30;83.00
52030;DHT22;38043;53.224;6.580;2023-04-29T12:20:04;18.30;83.50
52030;DHT22;38043;53.224;6.580;2023-04-29T12:22:33;18.10;80.20
52030;DHT22;38043;53.224;6.580;2023-04-29T12:24:58;18.10;84.30
52030;DHT22;38043;53.224;6.580;2023-04-29T12:27:24;18.00;79.10
52030;DHT22;38043;53.224;6.580;2023-04-29T12:29:51;18.00;80.50
52030;DHT22;38043;53.224;6.580;2023-04-29T12:32:17;18.10;76.80
52030;DHT22;38043;53.224;6.580;2023-04-29T12:34:44;18.00;76.70
52030;DHT22;38043;53.224;6.580;2023-04-29T12:37:10;18.10;74.90
52030;DHT22;38043;53.224;6.580;2023-04-29T12:39:37;18.20;72.40
52030;DHT22;38043;53.224;6.580;2023-04-29T12:42:03;18.30;72.90
52030;DHT22;38043;53.224;6.580;2023-04-29T12:44:35;18.80;77.30
52030;DHT22;38043;53.224;6.580;2023-04-29T12:47:11;18.90;73.70
52030;DHT22;38043;53.224;6.580;2023-04-29T12:49:40;19.10;74.30
52030;DHT22;38043;53.224;6.580;2023-04-29T12:52:06;19.40;76.50
52030;DHT22;38043;53.224;6.580;2023-04-29T12:54:35;19.90;77.10
52030;DHT22;38043;53.224;6.580;2023-04-29T12:57:01;20.40;75.00
52030;DHT22;38043;53.224;6.580;2023-04-29T12:59:27;20.40;70.70
52030;DHT22;38043;53.224;6.580;2023-04-29T13:01:52;19.90;73.00
52030;DHT22;38043;53.224;6.580;2023-04-29T13:04:18;20.00;73.20
52030;DHT22;38043;53.224;6.580;2023-04-29T13:06:43;20.10;75.20
52030;DHT22;38043;53.224;6.580;2023-04-29T13:09:09;20.10;74.40
52030;DHT22;38043;53.224;6.580;2023-04-29T13:11:37;20.50;73.60
52030;DHT22;38043;53.224;6.580;2023-04-29T13:14:03;20.70;72.50
52030;DHT22;38043;53.224;6.580;2023-04-29T13:16:33;20.50;72.70
52030;DHT22;38043;53.224;6.580;2023-04-29T13:18:59;20.40;73.80
52030;DHT22;38043;53.224;6.580;2023-04-29T13:21:25;20.20;75.20
52030;DHT22;38043;53.224;6.580;2023-04-29T13:23:52;20.30;75.20
52030;DHT22;38043;53.224;6.580;2023-04-29T13:26:17;20.20;76.70
52030;DHT22;38043;53.224;6.580;2023-04-29T13:28:43;20.00;76.10
52030;DHT22;38043;53.224;6.580;2023-04-29T13:31:08;19.70;77.00
52030;DHT22;38043;53.224;6.580;2023-04-29T13:33:34;19.50;78.20
52030;DHT22;38043;53.224;6.580;2023-04-29T13:35:59;19.40;76.50
52030;DHT22;38043;53.224;6.580;2023-04-29T13:38:25;19.70;76.90
52030;DHT22;38043;53.224;6.580;2023-04-29T13:40:50;19.60;78.10
52030;DHT22;38043;53.224;6.580;2023-04-29T13:43:16;19.70;77.00
52030;DHT22;38043;53.224;6.580;2023-04-29T13:45:41;19.60;77.30
52030;DHT22;38043;53.224;6.580;2023-04-29T13:48:07;19.90;79.10
52030;DHT22;38043;53.224;6.580;2023-04-29T13:50:32;20.00;77.10
52030;DHT22;38043;53.224;6.580;2023-04-29T13:52:58;19.70;76.80
52030;DHT22;38043;53.224;6.580;2023-04-29T13:55:23;19.20;77.90
52030;DHT22;38043;53.224;6.580;2023-04-29T13:57:49;19.10;81.40
52030;DHT22;38043;53.224;6.580;2023-04-29T14:00:15;18.80;82.10
52030;DHT22;38043;53.224;6.580;2023-04-29T14:02:40;18.50;82.30
52030;DHT22;38043;53.224;6.580;2023-04-29T14:05:07;18.50;83.70
52030;DHT22;38043;53.224;6.580;2023-04-29T14:07:34;18.20;85.50
52030;DHT22;38043;53.224;6.580;2023-04-29T14:09:59;17.90;86.10
52030;DHT22;38043;53.224;6.580;2023-04-29T14:12:25;17.10;86.40
52030;DHT22;38043;53.224;6.580;2023-04-29T14:14:51;16.80;88.40
52030;DHT22;38043;53.224;6.580;2023-04-29T14:17:17;16.40;90.30
52030;DHT22;38043;53.224;6.580;2023-04-29T14:19:42;16.10;91.00
52030;DHT22;38043;53.224;6.580;2023-04-29T14:22:08;15.80;92.20
52030;DHT22;38043;53.224;6.580;2023-04-29T14:24:33;15.30;93.40
52030;DHT22;38043;53.224;6.580;2023-04-29T14:26:59;15.10;94.50
52030;DHT22;38043;53.224;6.580;2023-04-29T14:29:26;15.00;95.50
52030;DHT22;38043;53.224;6.580;2023-04-29T14:31:52;15.00;96.30
52030;DHT22;38043;53.224;6.580;2023-04-29T14:34:17;14.90;97.00
52030;DHT22;38043;53.224;6.580;2023-04-29T14:36:44;14.80;97.90
52030;DHT22;38043;53.224;6.580;2023-04-29T14:39:11;14.80;97.60
52030;DHT22;38043;53.224;6.580;2023-04-29T14:41:37;14.50;98.20
52030;DHT22;38043;53.224;6.580;2023-04-29T14:44:02;14.30;98.80
52030;DHT22;38043;53.224;6.580;2023-04-29T14:46:28;14.20;99.50
52030;DHT22;38043;53.224;6.580;2023-04-29T14:48:54;14.00;99.90
52030;DHT22;38043;53.224;6.580;2023-04-29T14:51:19;13.90;99.90
52030;DHT22;38043;53.224;6.580;2023-04-29T14:53:45;13.70;99.90
52030;DHT22;38043;53.224;6.580;2023-04-29T14:56:11;13.60;99.90
52030;DHT22;38043;53.224;6.580;2023-04-29T14:58:36;13.40;99.90
52030;DHT22;38043;53.224;6.580;2023-04-29T15:01:02;13.30;99.90
52030;DHT22;38043;53.224;6.580;2023-04-29T15:03:27;13.30;99.90
52030;DHT22;38043;53.224;6.580;2023-04-29T15:05:53;13.20;99.90
52030;DHT22;38043;53.224;6.580;2023-04-29T15:08:19;13.40;99.90
52030;DHT22;38043;53.224;6.580;2023-04-29T15:10:44;13.50;99.90
52030;DHT22;38043;53.224;6.580;2023-04-29T15:13:11;13.70;99.90
52030;DHT22;38043;53.224;6.580;2023-04-29T15:15:37;13.80;99.90
52030;DHT22;38043;53.224;6.580;2023-04-29T15:18:03;13.70;99.90
52030;DHT22;38043;53.224;6.580;2023-04-29T15:20:30;13.70;99.90
52030;DHT22;38043;53.224;6.580;2023-04-29T15:22:56;13.60;99.90
52030;DHT22;38043;53.224;6.580;2023-04-29T15:25:22;13.30;99.90
52030;DHT22;38043;53.224;6.580;2023-04-29T15:27:47;13.10;99.90
52030;DHT22;38043;53.224;6.580;2023-04-29T15:30:13;13.20;99.90
52030;DHT22;38043;53.224;6.580;2023-04-29T15:32:38;13.10;99.90
52030;DHT22;38043;53.224;6.580;2023-04-29T15:35:04;13.20;99.90
52030;DHT22;38043;53.224;6.580;2023-04-29T15:37:31;13.20;99.90
52030;DHT22;38043;53.224;6.580;2023-04-29T15:39:59;13.20;99.90
52030;DHT22;38043;53.224;6.580;2023-04-29T15:42:25;13.10;99.90
52030;DHT22;38043;53.224;6.580;2023-04-29T15:44:51;13.10;99.90
52030;DHT22;38043;53.224;6.580;2023-04-29T15:47:16;13.00;99.90
52030;DHT22;38043;53.224;6.580;2023-04-29T15:49:42;12.90;99.90
52030;DHT22;38043;53.224;6.580;2023-04-29T15:52:08;12.90;99.90
52030;DHT22;38043;53.224;6.580;2023-04-29T15:54:34;12.80;99.90
52030;DHT22;38043;53.224;6.580;2023-04-29T15:56:59;12.80;99.90
52030;DHT22;38043;53.224;6.580;2023-04-29T15:59:27;12.70;99.90
52030;DHT22;38043;53.224;6.580;2023-04-29T16:01:53;12.60;99.90
52030;DHT22;38043;53.224;6.580;2023-04-29T16:04:19;12.40;99.90
52030;DHT22;38043;53.224;6.580;2023-04-29T16:06:45;12.40;99.90
52030;DHT22;38043;53.224;6.580;2023-04-29T16:09:10;12.20;99.90
52030;DHT22;38043;53.224;6.580;2023-04-29T16:11:36;12.10;99.90